sensor_id;sensor_type;location;lat;lon;timestamp;pressure;altitude;pressure_sealevel;temperature;humidity
78835;BME280;68187;42.682;23.352;2023-02-25T11:51:54;93971.44;;;18.99;51.44
78835;BME280;68187;42.682;23.352;2023-02-25T11:54:31;93960.75;;;18.99;51.45
78835;BME280;68187;42.682;23.352;2023-02-25T11:57:06;93987.50;;;18.99;51.51
78835;BME280;68187;42.682;23.352;2023-02-25T12:33:31;93935.44;;;15.75;34.41
78835;BME280;68187;42.682;23.352;2023-02-25T12:36:41;93939.44;;;15.40;34.85
78835;BME280;68187;42.682;23.352;2023-02-25T12:39:27;93918.88;;;15.20;35.93
78835;BME280;68187;42.682;23.352;2023-02-25T12:42:11;93919.25;;;15.10;35.94
78835;BME280;68187;42.682;23.352;2023-02-25T12:45:15;93923.47;;;15.11;35.89
78835;BME280;68187;42.682;23.352;2023-02-25T12:48:02;93902.53;;;15.09;35.82
78835;BME280;68187;42.682;23.352;2023-02-25T12:50:42;93904.28;;;15.05;36.32
78835;BME280;68187;42.682;23.352;2023-02-25T12:53:26;93906.16;;;15.05;36.30
78835;BME280;68187;42.682;23.352;2023-02-25T12:56:06;93887.69;;;15.08;36.16
78835;BME280;68187;42.682;23.352;2023-02-25T12:58:46;93883.41;;;15.16;35.89
78835;BME280;68187;42.682;23.352;2023-02-25T13:01:47;93893.00;;;15.29;35.64
78835;BME280;68187;42.682;23.352;2023-02-25T13:04:50;93905.28;;;15.42;35.15
78835;BME280;68187;42.682;23.352;2023-02-25T13:07:46;93898.09;;;15.63;34.65
78835;BME280;68187;42.682;23.352;2023-02-25T13:10:44;93909.72;;;15.79;34.78
78835;BME280;68187;42.682;23.352;2023-02-25T13:13:28;93911.41;;;15.84;34.45
78835;BME280;68187;42.682;23.352;2023-02-25T13:16:10;93911.13;;;15.97;34.70
78835;BME280;68187;42.682;23.352;2023-02-25T13:18:45;93885.16;;;15.94;34.04
78835;BME280;68187;42.682;23.352;2023-02-25T13:21:34;93902.94;;;16.02;33.30
78835;BME280;68187;42.682;23.352;2023-02-25T13:24:19;93875.47;;;16.10;33.54
78835;BME280;68187;42.682;23.352;2023-02-25T13:30:28;93883.75;;;15.97;33.41
78835;BME280;68187;42.682;23.352;2023-02-25T13:33:10;93880.94;;;15.93;33.63
78835;BME280;68187;42.682;23.352;2023-02-25T13:35:49;93880.94;;;15.93;33.43
78835;BME280;68187;42.682;23.352;2023-02-25T13:38:48;93873.59;;;15.90;33.50
78835;BME280;68187;42.682;23.352;2023-02-25T13:41:40;93883.78;;;15.88;33.41
78835;BME280;68187;42.682;23.352;2023-02-25T13:44:35;93869.84;;;15.91;32.78
78835;BME280;68187;42.682;23.352;2023-02-25T13:53:46;93870.34;;;16.05;32.42
78835;BME280;68187;42.682;23.352;2023-02-25T13:56:44;93879.63;;;15.99;32.86
78835;BME280;68187;42.682;23.352;2023-02-25T14:02:40;93862.84;;;15.87;33.16
78835;BME280;68187;42.682;23.352;2023-02-25T14:05:57;93867.47;;;15.78;33.56
78835;BME280;68187;42.682;23.352;2023-02-25T14:08:55;93849.16;;;15.76;33.77
78835;BME280;68187;42.682;23.352;2023-02-25T14:11:37;93849.03;;;15.73;33.41
78835;BME280;68187;42.682;23.352;2023-02-25T14:17:22;93842.47;;;15.70;33.92
78835;BME280;68187;42.682;23.352;2023-02-25T14:20:04;93843.44;;;15.65;33.85
78835;BME280;68187;42.682;23.352;2023-02-25T14:22:39;93840.91;;;15.69;33.52
78835;BME280;68187;42.682;23.352;2023-02-25T14:25:19;93837.91;;;15.70;33.72
78835;BME280;68187;42.682;23.352;2023-02-25T14:27:58;93842.16;;;15.72;33.62
78835;BME280;68187;42.682;23.352;2023-02-25T14:30:33;93836.38;;;15.69;33.51
78835;BME280;68187;42.682;23.352;2023-02-25T14:33:24;93837.28;;;15.74;33.27
78835;BME280;68187;42.682;23.352;2023-02-25T14:36:12;93840.72;;;15.74;33.00
78835;BME280;68187;42.682;23.352;2023-02-25T14:39:00;93845.38;;;15.77;33.13
78835;BME280;68187;42.682;23.352;2023-02-25T14:41:43;93851.94;;;15.80;33.15
78835;BME280;68187;42.682;23.352;2023-02-25T14:44:24;93858.09;;;15.92;35.64
78835;BME280;68187;42.682;23.352;2023-02-25T14:46:58;93849.44;;;15.95;33.87
78835;BME280;68187;42.682;23.352;2023-02-25T14:49:30;93851.72;;;15.85;33.70
78835;BME280;68187;42.682;23.352;2023-02-25T14:52:28;93854.69;;;15.71;34.06
78835;BME280;68187;42.682;23.352;2023-02-25T14:55:23;93863.47;;;15.51;34.69
78835;BME280;68187;42.682;23.352;2023-02-25T14:58:18;93862.28;;;15.40;35.42
78835;BME280;68187;42.682;23.352;2023-02-25T15:01:16;93860.38;;;15.20;35.39
78835;BME280;68187;42.682;23.352;2023-02-25T15:07:06;93887.91;;;15.24;35.63
78835;BME280;68187;42.682;23.352;2023-02-25T15:10:11;93875.94;;;15.09;35.47
78835;BME280;68187;42.682;23.352;2023-02-25T15:16:20;93899.22;;;15.12;36.18
78835;BME280;68187;42.682;23.352;2023-02-25T15:22:18;93898.16;;;15.05;36.22
78835;BME280;68187;42.682;23.352;2023-02-25T15:24:48;93896.16;;;15.01;36.36
78835;BME280;68187;42.682;23.352;2023-02-25T15:27:43;93889.28;;;15.00;36.78
78835;BME280;68187;42.682;23.352;2023-02-25T15:30:13;93897.09;;;14.97;36.95
78835;BME280;68187;42.682;23.352;2023-02-25T15:33:04;93887.44;;;14.92;36.99
78835;BME280;68187;42.682;23.352;2023-02-25T15:35:57;93886.22;;;14.90;36.91
78835;BME280;68187;42.682;23.352;2023-02-25T15:38:46;93895.63;;;14.87;37.28
78835;BME280;68187;42.682;23.352;2023-02-25T15:41:41;93878.94;;;14.78;37.57
78835;BME280;68187;42.682;23.352;2023-02-25T15:44:35;93879.44;;;14.72;38.13
78835;BME280;68187;42.682;23.352;2023-02-25T15:47:24;93889.97;;;14.60;38.47
78835;BME280;68187;42.682;23.352;2023-02-25T15:49:55;93889.16;;;14.59;37.68
78835;BME280;68187;42.682;23.352;2023-02-25T15:55:20;93905.63;;;14.53;38.69
78835;BME280;68187;42.682;23.352;2023-02-25T15:57:56;93907.34;;;14.49;38.61
78835;BME280;68187;42.682;23.352;2023-02-25T16:03:39;93902.19;;;14.44;39.42
78835;BME280;68187;42.682;23.352;2023-02-25T16:06:13;93901.59;;;14.38;39.60
78835;BME280;68187;42.682;23.352;2023-02-25T16:08:49;93897.06;;;14.39;39.17
78835;BME280;68187;42.682;23.352;2023-02-25T16:11:23;93903.63;;;14.41;39.21
78835;BME280;68187;42.682;23.352;2023-02-25T16:13:52;93888.13;;;14.43;39.09
78835;BME280;68187;42.682;23.352;2023-02-25T16:16:21;93889.25;;;14.42;39.36
78835;BME280;68187;42.682;23.352;2023-02-25T16:18:51;93893.63;;;14.38;39.30
78835;BME280;68187;42.682;23.352;2023-02-25T16:21:23;93898.00;;;14.34;39.73
78835;BME280;68187;42.682;23.352;2023-02-25T16:23:53;93908.50;;;14.31;39.67
78835;BME280;68187;42.682;23.352;2023-02-25T16:26:39;93920.81;;;14.26;39.79
78835;BME280;68187;42.682;23.352;2023-02-25T16:29:16;93903.31;;;14.34;38.95
78835;BME280;68187;42.682;23.352;2023-02-25T16:31:51;93909.72;;;14.42;39.55
78835;BME280;68187;42.682;23.352;2023-02-25T16:34:25;93908.31;;;14.44;38.91
78835;BME280;68187;42.682;23.352;2023-02-25T16:37:04;93919.84;;;14.48;38.52
78835;BME280;68187;42.682;23.352;2023-02-25T16:39:35;93909.63;;;14.67;38.26
78835;BME280;68187;42.682;23.352;2023-02-25T16:42:04;93916.91;;;14.79;37.64
78835;BME280;68187;42.682;23.352;2023-02-25T16:44:35;93921.00;;;14.76;37.78
78835;BME280;68187;42.682;23.352;2023-02-25T16:47:05;93925.22;;;14.77;37.88
78835;BME280;68187;42.682;23.352;2023-02-25T16:49:45;93909.44;;;14.72;37.73
78835;BME280;68187;42.682;23.352;2023-02-25T16:52:16;93908.94;;;14.79;37.64
78835;BME280;68187;42.682;23.352;2023-02-25T16:54:44;93924.66;;;14.92;37.29
78835;BME280;68187;42.682;23.352;2023-02-25T16:57:19;93928.09;;;14.93;37.55
78835;BME280;68187;42.682;23.352;2023-02-25T16:59:47;93910.72;;;14.95;37.23
78835;BME280;68187;42.682;23.352;2023-02-25T17:02:24;93921.38;;;14.95;37.70
78835;BME280;68187;42.682;23.352;2023-02-25T17:04:53;93939.69;;;14.88;37.69
78835;BME280;68187;42.682;23.352;2023-02-25T17:07:25;93945.38;;;14.78;37.96
78835;BME280;68187;42.682;23.352;2023-02-25T17:09:55;93933.81;;;14.74;38.49
78835;BME280;68187;42.682;23.352;2023-02-25T17:12:29;93926.63;;;14.75;37.96
78835;BME280;68187;42.682;23.352;2023-02-25T17:15:00;93938.03;;;14.75;38.32
78835;BME280;68187;42.682;23.352;2023-02-25T17:17:31;93945.22;;;14.75;38.38
78835;BME280;68187;42.682;23.352;2023-02-25T17:20:00;93925.66;;;14.79;38.20
78835;BME280;68187;42.682;23.352;2023-02-25T17:22:32;93924.88;;;14.79;38.75
78835;BME280;68187;42.682;23.352;2023-02-25T17:25:00;93940.22;;;14.73;38.60
78835;BME280;68187;42.682;23.352;2023-02-25T17:27:29;93919.59;;;14.70;39.10
78835;BME280;68187;42.682;23.352;2023-02-25T17:29:56;93940.94;;;14.53;39.61
78835;BME280;68187;42.682;23.352;2023-02-25T17:32:26;93954.06;;;14.50;39.41
78835;BME280;68187;42.682;23.352;2023-02-25T17:34:56;93952.22;;;14.42;39.78
78835;BME280;68187;42.682;23.352;2023-02-25T17:37:27;93934.13;;;14.35;40.23
78835;BME280;68187;42.682;23.352;2023-02-25T17:39:57;93934.72;;;14.32;39.62
78835;BME280;68187;42.682;23.352;2023-02-25T17:42:30;93920.97;;;14.39;39.28
78835;BME280;68187;42.682;23.352;2023-02-25T17:44:59;93916.56;;;14.43;39.71
78835;BME280;68187;42.682;23.352;2023-02-25T17:47:29;93920.50;;;14.28;40.22
78835;BME280;68187;42.682;23.352;2023-02-25T17:49:58;93937.22;;;14.37;39.62
78835;BME280;68187;42.682;23.352;2023-02-25T17:52:36;93913.16;;;14.42;39.63
78835;BME280;68187;42.682;23.352;2023-02-25T17:55:22;93907.34;;;14.49;39.72
78835;BME280;68187;42.682;23.352;2023-02-25T17:57:52;93910.94;;;14.53;39.93
78835;BME280;68187;42.682;23.352;2023-02-25T18:00:22;93908.31;;;14.44;39.88
78835;BME280;68187;42.682;23.352;2023-02-25T18:03:10;93908.16;;;14.41;40.64
78835;BME280;68187;42.682;23.352;2023-02-25T18:05:48;93885.19;;;14.36;40.28
78835;BME280;68187;42.682;23.352;2023-02-25T18:08:18;93892.69;;;14.34;40.60
78835;BME280;68187;42.682;23.352;2023-02-25T18:10:53;93876.63;;;14.31;40.37
78835;BME280;68187;42.682;23.352;2023-02-25T18:13:33;93890.38;;;14.33;40.34
78835;BME280;68187;42.682;23.352;2023-02-25T18:16:29;93888.63;;;14.28;40.69
78835;BME280;68187;42.682;23.352;2023-02-25T18:19:06;93903.31;;;14.25;40.85
78835;BME280;68187;42.682;23.352;2023-02-25T18:21:39;93883.03;;;14.21;41.06
78835;BME280;68187;42.682;23.352;2023-02-25T18:24:07;93906.63;;;14.14;41.11
78835;BME280;68187;42.682;23.352;2023-02-25T18:26:36;93889.44;;;14.11;40.65
78835;BME280;68187;42.682;23.352;2023-02-25T18:29:07;93896.59;;;14.28;40.79
78835;BME280;68187;42.682;23.352;2023-02-25T18:31:36;93916.59;;;14.34;40.62
78835;BME280;68187;42.682;23.352;2023-02-25T18:34:03;93899.72;;;14.39;40.33
78835;BME280;68187;42.682;23.352;2023-02-25T18:36:31;93908.16;;;14.41;40.53
78835;BME280;68187;42.682;23.352;2023-02-25T18:39:02;93914.88;;;14.38;40.63
78835;BME280;68187;42.682;23.352;2023-02-25T18:41:30;93911.44;;;14.29;41.30
78835;BME280;68187;42.682;23.352;2023-02-25T18:44:00;93904.56;;;14.28;40.62
78835;BME280;68187;42.682;23.352;2023-02-25T18:46:29;93913.16;;;14.34;41.24
78835;BME280;68187;42.682;23.352;2023-02-25T18:48:56;93924.44;;;14.31;41.08
78835;BME280;68187;42.682;23.352;2023-02-25T18:51:23;93907.72;;;14.30;41.79
78835;BME280;68187;42.682;23.352;2023-02-25T18:53:51;93904.25;;;14.38;41.01
78835;BME280;68187;42.682;23.352;2023-02-25T18:56:18;93885.19;;;14.45;41.08
78835;BME280;68187;42.682;23.352;2023-02-25T18:58:46;93912.22;;;14.47;41.34
78835;BME280;68187;42.682;23.352;2023-02-25T19:01:19;93906.91;;;14.47;41.33
78835;BME280;68187;42.682;23.352;2023-02-25T19:03:48;93911.25;;;14.43;41.49
78835;BME280;68187;42.682;23.352;2023-02-25T19:06:16;93908.94;;;14.41;41.58
78835;BME280;68187;42.682;23.352;2023-02-25T19:08:44;93904.09;;;14.35;42.48
78835;BME280;68187;42.682;23.352;2023-02-25T19:11:18;93903.94;;;14.22;42.57
78835;BME280;68187;42.682;23.352;2023-02-25T19:13:46;93907.56;;;14.18;42.20
78835;BME280;68187;42.682;23.352;2023-02-25T19:16:15;93911.13;;;14.22;42.22
78835;BME280;68187;42.682;23.352;2023-02-25T19:18:44;93911.28;;;14.25;40.72
78835;BME280;68187;42.682;23.352;2023-02-25T19:21:14;93910.97;;;14.44;40.91
78835;BME280;68187;42.682;23.352;2023-02-25T19:23:42;93881.44;;;14.75;42.16
78835;BME280;68187;42.682;23.352;2023-02-25T19:26:09;93880.94;;;14.81;39.50
78835;BME280;68187;42.682;23.352;2023-02-25T19:28:38;93911.59;;;14.79;39.58
78835;BME280;68187;42.682;23.352;2023-02-25T19:31:06;93890.53;;;14.74;40.16
78835;BME280;68187;42.682;23.352;2023-02-25T19:33:35;93902.91;;;14.61;40.55
78835;BME280;68187;42.682;23.352;2023-02-25T19:36:04;93896.41;;;14.50;40.96
78835;BME280;68187;42.682;23.352;2023-02-25T19:38:33;93922.66;;;14.43;41.14
78835;BME280;68187;42.682;23.352;2023-02-25T19:41:02;93900.03;;;14.37;40.69
78835;BME280;68187;42.682;23.352;2023-02-25T19:43:31;93897.22;;;14.34;40.83
78835;BME280;68187;42.682;23.352;2023-02-25T19:45:59;93882.81;;;14.43;40.14
78835;BME280;68187;42.682;23.352;2023-02-25T19:48:27;93908.94;;;14.41;40.98
78835;BME280;68187;42.682;23.352;2023-02-25T19:50:56;93921.47;;;14.32;40.88
78835;BME280;68187;42.682;23.352;2023-02-25T19:53:24;93913.03;;;14.30;41.16
78835;BME280;68187;42.682;23.352;2023-02-25T19:55:55;93914.44;;;14.19;41.55
78835;BME280;68187;42.682;23.352;2023-02-25T19:58:25;93895.09;;;14.10;41.97
78835;BME280;68187;42.682;23.352;2023-02-25T20:00:52;93900.41;;;14.01;42.07
78835;BME280;68187;42.682;23.352;2023-02-25T20:03:26;93894.34;;;13.92;41.86
78835;BME280;68187;42.682;23.352;2023-02-25T20:05:55;93869.81;;;13.87;42.24
78835;BME280;68187;42.682;23.352;2023-02-25T20:08:23;93877.16;;;13.90;41.42
78835;BME280;68187;42.682;23.352;2023-02-25T20:10:50;93885.09;;;14.07;40.46
78835;BME280;68187;42.682;23.352;2023-02-25T20:13:18;93884.00;;;14.08;41.22
78835;BME280;68187;42.682;23.352;2023-02-25T20:15:45;93908.34;;;14.10;40.49
78835;BME280;68187;42.682;23.352;2023-02-25T20:18:13;93901.31;;;14.14;39.65
78835;BME280;68187;42.682;23.352;2023-02-25T20:20:40;93898.16;;;14.20;40.19
78835;BME280;68187;42.682;23.352;2023-02-25T20:23:09;93895.19;;;14.22;40.06
78835;BME280;68187;42.682;23.352;2023-02-25T20:25:37;93879.25;;;14.22;39.98
78835;BME280;68187;42.682;23.352;2023-02-25T20:28:04;93881.66;;;14.15;40.67
78835;BME280;68187;42.682;23.352;2023-02-25T20:30:32;93897.44;;;14.03;40.53
78835;BME280;68187;42.682;23.352;2023-02-25T20:32:59;93901.50;;;14.00;40.53
78835;BME280;68187;42.682;23.352;2023-02-25T20:35:28;93894.31;;;14.01;40.04
78835;BME280;68187;42.682;23.352;2023-02-25T20:38:13;93895.88;;;14.10;40.07
78835;BME280;68187;42.682;23.352;2023-02-25T20:40:42;93920.06;;;14.09;41.04
78835;BME280;68187;42.682;23.352;2023-02-25T20:43:10;93901.50;;;14.00;40.99
78835;BME280;68187;42.682;23.352;2023-02-25T20:45:38;93916.50;;;13.79;41.62
78835;BME280;68187;42.682;23.352;2023-02-25T20:48:05;93910.13;;;13.80;41.38
78835;BME280;68187;42.682;23.352;2023-02-25T20:50:34;93902.75;;;13.86;41.28
78835;BME280;68187;42.682;23.352;2023-02-25T20:53:03;93894.03;;;13.94;41.31
78835;BME280;68187;42.682;23.352;2023-02-25T20:55:32;93921.34;;;13.94;41.37
78835;BME280;68187;42.682;23.352;2023-02-25T20:57:59;93924.47;;;13.96;41.49
78835;BME280;68187;42.682;23.352;2023-02-25T21:00:27;93908.69;;;14.00;41.67
78835;BME280;68187;42.682;23.352;2023-02-25T21:02:54;93904.94;;;14.01;41.97
78835;BME280;68187;42.682;23.352;2023-02-25T21:05:22;93907.44;;;13.97;42.21
78835;BME280;68187;42.682;23.352;2023-02-25T21:07:49;93903.22;;;13.96;42.16
78835;BME280;68187;42.682;23.352;2023-02-25T21:10:17;93905.09;;;13.96;42.53
78835;BME280;68187;42.682;23.352;2023-02-25T21:12:46;93912.44;;;13.99;41.81
78835;BME280;68187;42.682;23.352;2023-02-25T21:15:14;93890.06;;;14.08;39.96
78835;BME280;68187;42.682;23.352;2023-02-25T21:17:41;93891.16;;;14.16;39.95
78835;BME280;68187;42.682;23.352;2023-02-25T21:20:10;93893.03;;;14.15;40.21
78835;BME280;68187;42.682;23.352;2023-02-25T21:22:39;93890.84;;;14.17;39.35
78835;BME280;68187;42.682;23.352;2023-02-25T21:25:07;93890.06;;;14.17;39.43
78835;BME280;68187;42.682;23.352;2023-02-25T21:27:35;93893.34;;;14.14;39.53
78835;BME280;68187;42.682;23.352;2023-02-25T21:30:04;93883.53;;;14.14;39.40
78835;BME280;68187;42.682;23.352;2023-02-25T21:32:32;93878.22;;;14.14;39.46
78835;BME280;68187;42.682;23.352;2023-02-25T21:35:00;93879.63;;;14.12;39.99
78835;BME280;68187;42.682;23.352;2023-02-25T21:37:27;93883.06;;;14.04;39.96
78835;BME280;68187;42.682;23.352;2023-02-25T21:39:55;93897.28;;;13.99;40.17
78835;BME280;68187;42.682;23.352;2023-02-25T21:42:22;93897.75;;;13.93;40.65
78835;BME280;68187;42.682;23.352;2023-02-25T21:44:50;93894.78;;;13.86;41.04
78835;BME280;68187;42.682;23.352;2023-02-25T21:47:19;93908.25;;;13.81;40.66
78835;BME280;68187;42.682;23.352;2023-02-25T21:49:46;93899.03;;;13.78;40.85
78835;BME280;68187;42.682;23.352;2023-02-25T21:52:15;93890.31;;;13.69;42.00
78835;BME280;68187;42.682;23.352;2023-02-25T21:54:43;93895.63;;;13.61;41.84
78835;BME280;68187;42.682;23.352;2023-02-25T21:57:11;93898.72;;;13.54;42.40
78835;BME280;68187;42.682;23.352;2023-02-25T21:59:38;93897.00;;;13.49;41.96
78835;BME280;68187;42.682;23.352;2023-02-25T22:02:06;93902.16;;;13.46;41.82
78835;BME280;68187;42.682;23.352;2023-02-25T22:04:35;93889.03;;;13.49;41.83
78835;BME280;68187;42.682;23.352;2023-02-25T22:07:02;93901.88;;;13.56;41.35
78835;BME280;68187;42.682;23.352;2023-02-25T22:09:30;93900.28;;;13.55;42.12
78835;BME280;68187;42.682;23.352;2023-02-25T22:11:57;93896.84;;;13.54;41.70
78835;BME280;68187;42.682;23.352;2023-02-25T22:14:25;93897.19;;;13.53;41.82
78835;BME280;68187;42.682;23.352;2023-02-25T22:16:52;93901.69;;;13.52;41.79
78835;BME280;68187;42.682;23.352;2023-02-25T22:19:20;93917.16;;;13.50;41.73
78835;BME280;68187;42.682;23.352;2023-02-25T22:21:49;93927.13;;;13.53;41.42
78835;BME280;68187;42.682;23.352;2023-02-25T22:24:16;93933.53;;;13.52;42.51
78835;BME280;68187;42.682;23.352;2023-02-25T22:26:44;93937.44;;;13.46;42.27
78835;BME280;68187;42.682;23.352;2023-02-25T22:29:13;93941.47;;;13.44;42.36
78835;BME280;68187;42.682;23.352;2023-02-25T22:31:40;93943.50;;;13.38;43.03
78835;BME280;68187;42.682;23.352;2023-02-25T22:34:08;93931.63;;;13.36;41.93
78835;BME280;68187;42.682;23.352;2023-02-25T22:36:36;93949.72;;;13.34;43.26
78835;BME280;68187;42.682;23.352;2023-02-25T22:39:06;93955.97;;;13.29;42.24
78835;BME280;68187;42.682;23.352;2023-02-25T22:41:35;93954.88;;;13.39;42.23
78835;BME280;68187;42.682;23.352;2023-02-25T22:44:04;93961.44;;;13.50;40.62
78835;BME280;68187;42.682;23.352;2023-02-25T22:46:33;93952.72;;;13.67;39.84
78835;BME280;68187;42.682;23.352;2023-02-25T22:49:02;93949.13;;;13.80;40.26
78835;BME280;68187;42.682;23.352;2023-02-25T22:51:32;93955.22;;;13.89;39.50
78835;BME280;68187;42.682;23.352;2023-02-25T22:54:00;93953.03;;;14.08;38.18
78835;BME280;68187;42.682;23.352;2023-02-25T22:56:31;93953.97;;;14.12;38.06
78835;BME280;68187;42.682;23.352;2023-02-25T22:58:59;93970.03;;;14.07;39.47
78835;BME280;68187;42.682;23.352;2023-02-25T23:01:26;93955.38;;;14.01;39.70
78835;BME280;68187;42.682;23.352;2023-02-25T23:03:55;93961.63;;;13.96;39.58
78835;BME280;68187;42.682;23.352;2023-02-25T23:06:25;93954.28;;;14.02;39.07
78835;BME280;68187;42.682;23.352;2023-02-25T23:08:53;93956.31;;;13.96;39.31
78835;BME280;68187;42.682;23.352;2023-02-25T23:11:23;93970.97;;;14.11;38.61
78835;BME280;68187;42.682;23.352;2023-02-25T23:13:55;93966.16;;;14.30;38.26
78835;BME280;68187;42.682;23.352;2023-02-25T23:16:27;93970.19;;;14.27;38.36
78835;BME280;68187;42.682;23.352;2023-02-25T23:18:56;93983.13;;;14.29;38.01
78835;BME280;68187;42.682;23.352;2023-02-25T23:21:24;93971.91;;;14.32;38.09
78835;BME280;68187;42.682;23.352;2023-02-25T23:23:54;93989.09;;;14.35;37.84
78835;BME280;68187;42.682;23.352;2023-02-25T23:26:25;93991.44;;;14.36;38.04
78835;BME280;68187;42.682;23.352;2023-02-25T23:28:56;93997.84;;;14.44;37.85
78835;BME280;68187;42.682;23.352;2023-02-25T23:31:25;93986.28;;;14.40;38.27
78835;BME280;68187;42.682;23.352;2023-02-25T23:33:54;93989.44;;;14.33;38.35
78835;BME280;68187;42.682;23.352;2023-02-25T23:36:22;93993.47;;;14.39;37.84
78835;BME280;68187;42.682;23.352;2023-02-25T23:38:52;93982.84;;;14.39;38.03
78835;BME280;68187;42.682;23.352;2023-02-25T23:41:20;93983.00;;;14.34;38.31
78835;BME280;68187;42.682;23.352;2023-02-25T23:43:51;93970.34;;;14.31;37.92
78835;BME280;68187;42.682;23.352;2023-02-25T23:46:21;93982.09;;;14.30;38.11
78835;BME280;68187;42.682;23.352;2023-02-25T23:48:50;93974.25;;;14.25;38.09
78835;BME280;68187;42.682;23.352;2023-02-25T23:51:20;93989.72;;;14.23;38.33
78835;BME280;68187;42.682;23.352;2023-02-25T23:53:51;93983.16;;;14.20;38.39
78835;BME280;68187;42.682;23.352;2023-02-25T23:56:19;93978.31;;;14.14;38.29
78835;BME280;68187;42.682;23.352;2023-02-25T23:58:48;93983.97;;;14.12;38.93
